createdAt,value
2018-12-27T03:14:45.066Z,1017.07
2018-12-27T03:15:45.031Z,1017.03
2018-12-27T03:16:45.003Z,1017.04
2018-12-27T03:17:45.110Z,1016.99
2018-12-27T03:18:44.998Z,1017.00
2018-12-27T03:19:44.962Z,1016.99
2018-12-27T03:20:44.888Z,1016.97
2018-12-27T03:21:44.883Z,1016.95
2018-12-27T03:22:44.897Z,1016.91
2018-12-27T03:23:44.889Z,1016.85
2018-12-27T03:24:44.845Z,1016.86
2018-12-27T03:25:44.843Z,1016.87
2018-12-27T03:26:44.814Z,1016.86
2018-12-27T03:27:44.814Z,1016.85
2018-12-27T03:28:44.770Z,1016.86
2018-12-27T03:29:44.773Z,1016.86
2018-12-27T03:30:44.826Z,1016.85
2018-12-27T03:31:44.751Z,1016.84
2018-12-27T03:32:44.750Z,1016.81
2018-12-27T03:33:52.479Z,1016.81
2018-12-27T03:34:44.689Z,1016.79
2018-12-27T03:35:44.704Z,1016.81
2018-12-27T03:36:44.700Z,1016.81
2018-12-27T03:37:44.699Z,1016.78
2018-12-27T03:38:44.675Z,1016.76
2018-12-27T03:39:44.644Z,1016.75
2018-12-27T03:40:44.607Z,1016.73
2018-12-27T03:41:44.646Z,1016.74
2018-12-27T03:42:44.622Z,1016.71
2018-12-27T03:43:44.660Z,1016.69
2018-12-27T03:44:44.599Z,1016.70
2018-12-27T03:45:44.574Z,1016.66
2018-12-27T03:46:44.541Z,1016.73
2018-12-27T03:47:44.574Z,1016.68
2018-12-27T03:48:44.516Z,1016.70
2018-12-27T03:49:44.528Z,1016.71
2018-12-27T03:50:44.530Z,1016.71
2018-12-27T03:51:44.546Z,1016.70
2018-12-27T03:52:44.449Z,1016.73
2018-12-27T03:53:44.455Z,1016.74
2018-12-27T03:54:44.425Z,1016.73
2018-12-27T03:55:44.425Z,1016.73
2018-12-27T03:56:44.444Z,1016.75
2018-12-27T03:57:44.381Z,1016.74
2018-12-27T03:58:44.388Z,1016.73
2018-12-27T03:59:44.391Z,1016.65
2018-12-27T04:00:44.398Z,1016.63
2018-12-27T04:01:44.363Z,1016.57
2018-12-27T04:02:44.334Z,1016.54
2018-12-27T04:03:44.346Z,1016.50
2018-12-27T04:04:44.299Z,1016.46
2018-12-27T04:05:44.285Z,1016.44
2018-12-27T04:06:44.302Z,1016.42
2018-12-27T04:07:44.281Z,1016.40
2018-12-27T04:08:44.316Z,1016.37
2018-12-27T04:09:44.223Z,1016.39
2018-12-27T04:10:44.256Z,1016.36
2018-12-27T04:11:44.243Z,1016.35
2018-12-27T04:12:44.232Z,1016.34
2018-12-27T04:13:44.230Z,1016.31
2018-12-27T04:14:44.225Z,1016.34
2018-12-27T04:15:44.174Z,1016.31
2018-12-27T04:16:44.173Z,1016.32
2018-12-27T04:17:44.177Z,1016.35
2018-12-27T04:18:44.161Z,1016.36
2018-12-27T04:19:44.123Z,1016.35
2018-12-27T04:20:44.100Z,1016.31
2018-12-27T04:21:44.095Z,1016.35
2018-12-27T04:22:44.063Z,1016.37
2018-12-27T04:23:44.084Z,1016.39
2018-12-27T04:24:44.051Z,1016.40
2018-12-27T04:25:44.066Z,1016.41
2018-12-27T04:26:44.031Z,1016.39
2018-12-27T04:27:44.038Z,1016.33
2018-12-27T04:28:52.779Z,1016.33
2018-12-27T04:30:58.618Z,1016.35
2018-12-27T04:31:48.541Z,1016.34
2018-12-27T04:32:48.494Z,1016.37
2018-12-27T04:33:48.469Z,1016.39
2018-12-27T04:34:57.127Z,1016.40
2018-12-27T04:36:53.032Z,1016.35
2018-12-27T04:37:53.032Z,1016.37
2018-12-27T04:38:53.022Z,1016.36
2018-12-27T04:39:52.979Z,1016.31
2018-12-27T04:40:52.950Z,1016.34
2018-12-27T04:41:52.877Z,1016.34
2018-12-27T04:42:52.861Z,1016.40
2018-12-27T04:43:52.839Z,1016.49
2018-12-27T04:44:52.848Z,1016.50
2018-12-27T04:45:52.786Z,1016.47
2018-12-27T04:46:52.788Z,1016.49
2018-12-27T04:47:52.834Z,1016.49
2018-12-27T04:48:52.739Z,1016.45
2018-12-27T04:49:52.723Z,1016.41
2018-12-27T04:50:52.715Z,1016.42
2018-12-27T04:51:52.713Z,1016.36
2018-12-27T04:52:52.687Z,1016.30
2018-12-27T04:53:52.693Z,1016.22
2018-12-27T04:54:52.664Z,1016.28
2018-12-27T04:55:52.678Z,1016.29
2018-12-27T04:57:01.434Z,1016.33
2018-12-27T04:58:57.231Z,1016.40
2018-12-27T04:59:57.438Z,1016.33
2018-12-27T05:00:57.323Z,1016.34
2018-12-27T05:01:57.135Z,1016.26
2018-12-27T05:02:57.072Z,1016.23
2018-12-27T05:03:57.112Z,1016.27
2018-12-27T05:04:57.020Z,1016.24
2018-12-27T05:05:57.006Z,1016.26
2018-12-27T05:06:57.035Z,1016.27
2018-12-27T05:07:57.037Z,1016.30
2018-12-27T05:08:56.992Z,1016.30
2018-12-27T05:09:56.953Z,1016.34
2018-12-27T05:10:57.038Z,1016.34
2018-12-27T05:11:56.933Z,1016.36
2018-12-27T05:12:56.922Z,1016.35
2018-12-27T05:13:58.234Z,1016.33
2018-12-27T05:14:56.954Z,1016.34
2018-12-27T05:15:56.931Z,1016.37
2018-12-27T05:16:56.866Z,1016.45
2018-12-27T05:17:56.903Z,1016.44
2018-12-27T05:18:56.853Z,1016.43
2018-12-27T05:19:56.846Z,1016.43
2018-12-27T05:20:56.865Z,1016.39
2018-12-27T05:21:56.807Z,1016.43
2018-12-27T05:22:56.799Z,1016.50
2018-12-27T05:23:56.819Z,1016.54
2018-12-27T05:24:56.753Z,1016.55
2018-12-27T05:25:56.768Z,1016.49
2018-12-27T05:26:56.723Z,1016.47
2018-12-27T05:27:56.710Z,1016.40
2018-12-27T05:28:56.790Z,1016.41
2018-12-27T05:29:56.702Z,1016.43
2018-12-27T05:30:56.735Z,1016.46
2018-12-27T05:31:56.710Z,1016.49
2018-12-27T05:32:56.736Z,1016.54
2018-12-27T05:33:56.641Z,1016.54
2018-12-27T05:34:56.693Z,1016.53
2018-12-27T05:35:56.658Z,1016.55
2018-12-27T05:36:56.601Z,1016.56
2018-12-27T05:37:56.607Z,1016.52
2018-12-27T05:38:56.630Z,1016.55
2018-12-27T05:39:56.614Z,1016.59
2018-12-27T05:40:56.602Z,1016.62
2018-12-27T05:41:56.533Z,1016.67
2018-12-27T05:42:56.513Z,1016.64
2018-12-27T05:43:56.528Z,1016.65
2018-12-27T05:44:56.486Z,1016.59
2018-12-27T05:45:56.470Z,1016.58
2018-12-27T05:46:56.482Z,1016.58
2018-12-27T05:47:56.443Z,1016.65
2018-12-27T05:48:56.451Z,1016.70
2018-12-27T05:49:56.451Z,1016.69
2018-12-27T05:50:56.405Z,1016.73
2018-12-27T05:51:56.403Z,1016.71
2018-12-27T05:52:56.406Z,1016.73
2018-12-27T05:53:56.385Z,1016.69
2018-12-27T05:54:56.400Z,1016.72
2018-12-27T05:55:56.361Z,1016.72
2018-12-27T05:56:56.326Z,1016.72
2018-12-27T05:57:56.359Z,1016.67
2018-12-27T05:58:56.324Z,1016.67
2018-12-27T05:59:56.280Z,1016.66
2018-12-27T06:00:56.310Z,1016.64
2018-12-27T06:01:56.288Z,1016.64
2018-12-27T06:02:56.267Z,1016.63
2018-12-27T06:04:04.985Z,1016.67
2018-12-27T06:06:01.986Z,1016.70
2018-12-27T06:07:01.935Z,1016.70
2018-12-27T06:08:01.772Z,1016.68
2018-12-27T06:09:01.845Z,1016.61
2018-12-27T06:10:01.718Z,1016.62
2018-12-27T06:11:01.673Z,1016.65
2018-12-27T06:12:01.647Z,1016.64
2018-12-27T06:13:01.648Z,1016.61
2018-12-27T06:14:01.614Z,1016.62
2018-12-27T06:15:01.627Z,1016.61
2018-12-27T06:16:01.648Z,1016.63
2018-12-27T06:17:01.595Z,1016.61
2018-12-27T06:18:01.622Z,1016.59
2018-12-27T06:19:01.577Z,1016.58
2018-12-27T06:20:01.578Z,1016.59
2018-12-27T06:21:01.539Z,1016.59
2018-12-27T06:22:01.560Z,1016.58
2018-12-27T06:23:01.517Z,1016.58
2018-12-27T06:24:01.514Z,1016.56
2018-12-27T06:25:01.509Z,1016.54
2018-12-27T06:26:01.545Z,1016.50
2018-12-27T06:27:01.465Z,1016.53
2018-12-27T06:28:01.470Z,1016.50
2018-12-27T06:29:01.446Z,1016.48
2018-12-27T06:30:02.485Z,1016.46
2018-12-27T06:31:01.465Z,1016.46
2018-12-27T06:32:10.357Z,1016.49
2018-12-27T06:34:06.021Z,1016.47
2018-12-27T06:35:06.023Z,1016.47
2018-12-27T06:36:05.887Z,1016.49
2018-12-27T06:37:05.835Z,1016.48
2018-12-27T06:38:05.843Z,1016.46
2018-12-27T06:39:06.127Z,1016.49
2018-12-27T06:40:05.765Z,1016.46
2018-12-27T06:41:05.768Z,1016.52
2018-12-27T06:42:05.781Z,1016.51
2018-12-27T06:43:05.756Z,1016.47
2018-12-27T06:44:05.719Z,1016.46
2018-12-27T06:45:05.762Z,1016.46
2018-12-27T06:46:05.713Z,1016.55
2018-12-27T06:47:05.710Z,1016.51
2018-12-27T06:48:05.669Z,1016.48
2018-12-27T06:49:05.648Z,1016.42
2018-12-27T06:50:05.647Z,1016.36
2018-12-27T06:51:05.692Z,1016.38
2018-12-27T06:52:05.639Z,1016.42
2018-12-27T06:53:05.646Z,1016.46
2018-12-27T06:54:05.607Z,1016.46
2018-12-27T06:55:05.583Z,1016.48
2018-12-27T06:56:05.581Z,1016.47
2018-12-27T06:57:05.567Z,1016.48
2018-12-27T06:58:05.541Z,1016.49
2018-12-27T06:59:05.535Z,1016.50
2018-12-27T07:00:05.536Z,1016.48
2018-12-27T07:01:05.499Z,1016.43
2018-12-27T07:02:05.474Z,1016.37
2018-12-27T07:03:05.468Z,1016.39
2018-12-27T07:04:05.483Z,1016.36
2018-12-27T07:05:05.445Z,1016.42
2018-12-27T07:06:05.435Z,1016.42
2018-12-27T07:07:05.445Z,1016.48
2018-12-27T07:08:05.413Z,1016.44
2018-12-27T07:09:05.376Z,1016.45
2018-12-27T07:10:05.371Z,1016.45
2018-12-27T07:11:05.351Z,1016.46
2018-12-27T07:12:05.367Z,1016.47
2018-12-27T07:13:05.348Z,1016.49
2018-12-27T07:14:05.323Z,1016.50
2018-12-27T07:15:05.368Z,1016.48
2018-12-27T07:16:05.289Z,1016.50
2018-12-27T07:17:05.268Z,1016.45
2018-12-27T07:18:05.259Z,1016.41
2018-12-27T07:19:05.239Z,1016.38
2018-12-27T07:20:05.233Z,1016.45
2018-12-27T07:21:05.296Z,1016.41
2018-12-27T07:22:05.205Z,1016.47
2018-12-27T07:23:05.221Z,1016.48
2018-12-27T07:24:05.188Z,1016.49
2018-12-27T07:25:05.186Z,1016.57
2018-12-27T07:26:05.184Z,1016.58
2018-12-27T07:27:05.144Z,1016.55
2018-12-27T07:28:05.139Z,1016.52
2018-12-27T07:29:05.113Z,1016.48
2018-12-27T07:30:05.133Z,1016.49
2018-12-27T07:31:05.083Z,1016.46
2018-12-27T07:32:05.110Z,1016.46
2018-12-27T07:33:05.094Z,1016.46
2018-12-27T07:34:05.052Z,1016.48
2018-12-27T07:35:05.046Z,1016.52
2018-12-27T07:36:05.051Z,1016.43
2018-12-27T07:37:05.047Z,1016.46
2018-12-27T07:38:05.029Z,1016.47
2018-12-27T07:39:04.983Z,1016.47
2018-12-27T07:40:04.965Z,1016.39
2018-12-27T07:41:04.974Z,1016.39
2018-12-27T07:42:04.933Z,1016.43
2018-12-27T07:43:04.971Z,1016.40
2018-12-27T07:44:04.914Z,1016.44
2018-12-27T07:45:04.900Z,1016.45
2018-12-27T07:46:10.847Z,1016.44
2018-12-27T07:47:05.703Z,1016.46
2018-12-27T07:48:04.864Z,1016.43
2018-12-27T07:49:04.835Z,1016.44
2018-12-27T07:50:04.837Z,1016.41
2018-12-27T07:51:04.826Z,1016.46
2018-12-27T07:52:04.850Z,1016.47
2018-12-27T07:53:04.796Z,1016.44
2018-12-27T07:54:04.780Z,1016.43
2018-12-27T07:55:04.760Z,1016.40
2018-12-27T07:56:04.783Z,1016.43
2018-12-27T07:57:04.728Z,1016.43
2018-12-27T07:58:04.760Z,1016.45
2018-12-27T07:59:04.738Z,1016.47
2018-12-27T08:00:04.698Z,1016.44
2018-12-27T08:01:04.682Z,1016.46
2018-12-27T08:02:04.685Z,1016.45
2018-12-27T08:03:04.679Z,1016.46
2018-12-27T08:04:04.681Z,1016.44
2018-12-27T08:05:04.684Z,1016.45
2018-12-27T08:06:04.638Z,1016.45
2018-12-27T08:07:13.607Z,1016.39
2018-12-27T08:09:09.372Z,1016.39
2018-12-27T08:10:18.843Z,1016.37
2018-12-27T08:12:23.841Z,1016.40
2018-12-27T08:13:14.536Z,1016.40
2018-12-27T08:14:14.525Z,1016.43
2018-12-27T08:15:14.517Z,1016.45
2018-12-27T08:16:14.470Z,1016.42
2018-12-27T08:17:14.442Z,1016.46
2018-12-27T08:18:14.466Z,1016.47
2018-12-27T08:19:14.457Z,1016.47
2018-12-27T08:20:14.437Z,1016.48
2018-12-27T08:21:14.402Z,1016.47
2018-12-27T08:22:23.388Z,1016.45
2018-12-27T08:24:18.933Z,1016.43
2018-12-27T08:25:18.843Z,1016.43
2018-12-27T08:26:27.801Z,1016.47
2018-12-27T08:27:27.859Z,1016.42
2018-12-27T08:29:31.344Z,1016.38
2018-12-27T08:30:31.232Z,1016.37
2018-12-27T08:31:23.348Z,1016.35
2018-12-27T08:32:23.268Z,1016.38
2018-12-27T08:33:23.262Z,1016.39
2018-12-27T08:34:23.198Z,1016.41
2018-12-27T08:35:23.187Z,1016.34
2018-12-27T08:36:23.226Z,1016.33
2018-12-27T08:37:23.168Z,1016.34
2018-12-27T08:38:23.150Z,1016.32
2018-12-27T08:39:23.172Z,1016.35
2018-12-27T08:40:23.116Z,1016.40
2018-12-27T08:41:23.118Z,1016.38
2018-12-27T08:42:23.111Z,1016.39
2018-12-27T08:43:23.108Z,1016.41
2018-12-27T08:44:23.060Z,1016.39
2018-12-27T08:45:23.086Z,1016.44
2018-12-27T08:46:23.053Z,1016.42
2018-12-27T08:47:23.088Z,1016.41
2018-12-27T08:48:23.010Z,1016.43
2018-12-27T08:49:23.023Z,1016.42
2018-12-27T08:50:22.979Z,1016.41
2018-12-27T08:51:22.982Z,1016.45
2018-12-27T08:52:22.953Z,1016.47
2018-12-27T08:53:22.952Z,1016.49
2018-12-27T08:54:22.972Z,1016.50
2018-12-27T08:55:22.939Z,1016.52
2018-12-27T08:56:22.903Z,1016.51
2018-12-27T08:57:22.886Z,1016.49
2018-12-27T08:58:22.882Z,1016.50
2018-12-27T08:59:22.870Z,1016.52
2018-12-27T09:00:22.872Z,1016.48
2018-12-27T09:01:22.839Z,1016.47
2018-12-27T09:02:22.836Z,1016.52
2018-12-27T09:03:22.836Z,1016.51
2018-12-27T09:04:22.811Z,1016.54
2018-12-27T09:05:22.785Z,1016.53
2018-12-27T09:06:22.775Z,1016.52
2018-12-27T09:07:22.757Z,1016.53
2018-12-27T09:08:22.770Z,1016.56
2018-12-27T09:09:22.767Z,1016.54
2018-12-27T09:10:22.728Z,1016.55
2018-12-27T09:11:22.704Z,1016.54
2018-12-27T09:12:22.721Z,1016.55
2018-12-27T09:13:22.713Z,1016.53
2018-12-27T09:14:22.696Z,1016.48
2018-12-27T09:15:22.688Z,1016.48
2018-12-27T09:16:22.662Z,1016.45
2018-12-27T09:17:22.644Z,1016.45
2018-12-27T09:18:22.687Z,1016.47
2018-12-27T09:19:22.631Z,1016.46
2018-12-27T09:20:22.592Z,1016.47
2018-12-27T09:21:22.586Z,1016.46
2018-12-27T09:22:22.566Z,1016.45
2018-12-27T09:23:22.563Z,1016.49
2018-12-27T09:24:22.554Z,1016.51
2018-12-27T09:25:22.532Z,1016.50
2018-12-27T09:26:22.515Z,1016.51
2018-12-27T09:27:22.500Z,1016.49
2018-12-27T09:28:22.493Z,1016.49
2018-12-27T09:29:22.483Z,1016.51
2018-12-27T09:30:22.463Z,1016.51
2018-12-27T09:31:22.450Z,1016.50
2018-12-27T09:32:22.444Z,1016.48
2018-12-27T09:33:22.424Z,1016.49
2018-12-27T09:34:22.417Z,1016.51
2018-12-27T09:35:26.346Z,1016.52
2018-12-27T09:36:22.385Z,1016.50
2018-12-27T09:37:22.384Z,1016.53
2018-12-27T09:38:22.365Z,1016.54
2018-12-27T09:39:22.352Z,1016.53
2018-12-27T09:40:22.364Z,1016.57
2018-12-27T09:41:22.321Z,1016.56
2018-12-27T09:42:22.308Z,1016.53
2018-12-27T09:43:22.294Z,1016.57
2018-12-27T09:44:22.284Z,1016.57
2018-12-27T09:45:22.273Z,1016.50
2018-12-27T09:46:22.250Z,1016.54
2018-12-27T09:47:22.248Z,1016.54
2018-12-27T09:48:22.228Z,1016.53
2018-12-27T09:49:22.227Z,1016.51
2018-12-27T09:50:22.210Z,1016.46
2018-12-27T09:51:22.201Z,1016.47
2018-12-27T09:52:22.188Z,1016.46
2018-12-27T09:53:22.166Z,1016.46
2018-12-27T09:54:22.153Z,1016.47
2018-12-27T09:55:22.144Z,1016.49
2018-12-27T09:56:22.163Z,1016.49
2018-12-27T09:57:22.117Z,1016.47
2018-12-27T09:58:22.105Z,1016.47
2018-12-27T09:59:22.115Z,1016.51
2018-12-27T10:00:22.139Z,1016.48
2018-12-27T10:01:22.094Z,1016.44
2018-12-27T10:02:22.055Z,1016.46
2018-12-27T10:03:22.076Z,1016.43
2018-12-27T10:04:22.027Z,1016.45
2018-12-27T10:05:22.033Z,1016.41
2018-12-27T10:06:22.012Z,1016.38
2018-12-27T10:07:21.992Z,1016.41
2018-12-27T10:08:21.984Z,1016.43
2018-12-27T10:09:21.980Z,1016.39
2018-12-27T10:10:21.967Z,1016.37
2018-12-27T10:11:21.938Z,1016.40
2018-12-27T10:12:21.924Z,1016.41
2018-12-27T10:13:21.917Z,1016.38
2018-12-27T10:14:21.900Z,1016.38
2018-12-27T10:15:21.915Z,1016.37
2018-12-27T10:16:21.893Z,1016.39
2018-12-27T10:17:21.863Z,1016.36
2018-12-27T10:18:21.892Z,1016.36
2018-12-27T10:19:21.875Z,1016.37
2018-12-27T10:20:21.870Z,1016.35
2018-12-27T10:21:21.817Z,1016.37
2018-12-27T10:22:21.820Z,1016.32
2018-12-27T10:23:21.796Z,1016.31
2018-12-27T10:24:21.796Z,1016.32
2018-12-27T10:25:21.776Z,1016.31
2018-12-27T10:26:21.756Z,1016.27
2018-12-27T10:27:21.737Z,1016.30
2018-12-27T10:28:21.729Z,1016.30
2018-12-27T10:29:21.741Z,1016.26
2018-12-27T10:30:21.730Z,1016.27
2018-12-27T10:31:21.738Z,1016.26
2018-12-27T10:32:21.672Z,1016.24
2018-12-27T10:33:21.742Z,1016.21
2018-12-27T10:34:21.648Z,1016.26
2018-12-27T10:35:21.639Z,1016.21
2018-12-27T10:36:21.629Z,1016.19
2018-12-27T10:37:21.611Z,1016.19
2018-12-27T10:38:21.595Z,1016.20
2018-12-27T10:39:21.595Z,1016.14
2018-12-27T10:40:21.645Z,1016.17
2018-12-27T10:41:21.562Z,1016.15
2018-12-27T10:42:21.608Z,1016.15
2018-12-27T10:43:21.548Z,1016.12
2018-12-27T10:44:21.686Z,1016.11
2018-12-27T10:45:21.548Z,1016.10
2018-12-27T10:46:21.518Z,1016.12
2018-12-27T10:47:21.535Z,1016.09
2018-12-27T10:48:21.475Z,1016.09
2018-12-27T10:49:21.540Z,1016.05
2018-12-27T10:50:21.469Z,1016.04
2018-12-27T10:51:21.432Z,1016.05
2018-12-27T10:52:21.457Z,1016.03
2018-12-27T10:53:21.406Z,1016.03
2018-12-27T10:54:21.416Z,1016.02
2018-12-27T10:55:21.401Z,1016.01
2018-12-27T10:56:21.395Z,1016.01
2018-12-27T10:57:30.356Z,1015.97
2018-12-27T10:59:26.329Z,1015.98
2018-12-27T11:00:25.859Z,1015.94
2018-12-27T11:01:25.899Z,1015.93
2018-12-27T11:02:25.814Z,1015.93
2018-12-27T11:03:30.557Z,1015.92
2018-12-27T11:04:25.986Z,1015.89
2018-12-27T11:05:25.782Z,1015.88
2018-12-27T11:06:25.765Z,1015.86
2018-12-27T11:07:25.746Z,1015.83
2018-12-27T11:08:25.719Z,1015.86
2018-12-27T11:09:25.727Z,1015.80
2018-12-27T11:10:25.711Z,1015.81
2018-12-27T11:11:25.684Z,1015.80
2018-12-27T11:12:25.731Z,1015.79
2018-12-27T11:13:25.686Z,1015.74
2018-12-27T11:14:25.652Z,1015.71
2018-12-27T11:15:25.638Z,1015.72
2018-12-27T11:16:25.666Z,1015.70
2018-12-27T11:17:34.594Z,1015.70
2018-12-27T11:19:30.261Z,1015.70
2018-12-27T11:20:30.365Z,1015.68
2018-12-27T11:21:30.134Z,1015.65
2018-12-27T11:22:30.078Z,1015.66
2018-12-27T11:23:30.054Z,1015.63
2018-12-27T11:26:09.773Z,1015.63
2018-12-27T11:27:09.491Z,1015.65
2018-12-27T11:28:09.444Z,1015.60
2018-12-27T11:29:09.635Z,1015.64
2018-12-27T11:30:09.407Z,1015.61
2018-12-27T11:31:09.433Z,1015.61
2018-12-27T11:32:09.365Z,1015.62
2018-12-27T11:33:09.400Z,1015.60
2018-12-27T11:34:09.384Z,1015.55
2018-12-27T11:35:19.506Z,1015.58
2018-12-27T11:37:03.365Z,1015.53
2018-12-27T11:38:03.259Z,1015.52
2018-12-27T11:39:03.908Z,1015.51
2018-12-27T11:40:02.950Z,1015.55
2018-12-27T11:41:03.325Z,1015.51
2018-12-27T11:42:02.945Z,1015.48
2018-12-27T11:43:02.819Z,1015.46
2018-12-27T11:44:02.817Z,1015.49
2018-12-27T11:45:02.797Z,1015.47
2018-12-27T11:46:02.781Z,1015.42
2018-12-27T11:47:02.786Z,1015.43
2018-12-27T11:48:02.754Z,1015.43
2018-12-27T11:49:02.773Z,1015.43
2018-12-27T11:50:02.754Z,1015.38
2018-12-27T11:51:02.731Z,1015.40
2018-12-27T11:52:02.903Z,1015.38
2018-12-27T11:53:02.803Z,1015.37
2018-12-27T11:54:02.719Z,1015.36
2018-12-27T11:55:02.687Z,1015.34
2018-12-27T11:56:02.693Z,1015.37
2018-12-27T11:57:02.646Z,1015.35
2018-12-27T11:58:02.642Z,1015.36
2018-12-27T11:59:02.658Z,1015.33
2018-12-27T12:00:02.639Z,1015.31
2018-12-27T12:01:02.623Z,1015.28
2018-12-27T12:02:02.614Z,1015.32
2018-12-27T12:03:02.599Z,1015.27
2018-12-27T12:04:02.556Z,1015.25
2018-12-27T12:05:02.563Z,1015.26
2018-12-27T12:06:03.447Z,1015.26
2018-12-27T12:07:02.525Z,1015.23
2018-12-27T12:08:11.479Z,1015.22
2018-12-27T12:10:16.196Z,1015.24
2018-12-27T12:11:17.743Z,1015.21
2018-12-27T12:13:02.534Z,1015.22
2018-12-27T12:14:02.424Z,1015.13
2018-12-27T12:15:02.368Z,1015.15
2018-12-27T12:16:02.409Z,1015.15
2018-12-27T12:17:02.560Z,1015.08
2018-12-27T12:18:02.324Z,1015.10
2018-12-27T12:19:02.368Z,1015.07
2018-12-27T12:20:02.326Z,1015.09
2018-12-27T12:21:02.315Z,1015.09
2018-12-27T12:22:02.265Z,1015.05
2018-12-27T12:23:02.338Z,1015.06
2018-12-27T12:24:02.320Z,1015.03
2018-12-27T12:25:02.240Z,1015.01
2018-12-27T12:26:02.256Z,1015.02
2018-12-27T12:27:02.195Z,1015.02
2018-12-27T12:28:02.215Z,1014.99
2018-12-27T12:29:02.205Z,1014.99
2018-12-27T12:30:02.166Z,1015.00
2018-12-27T12:31:02.177Z,1014.93
2018-12-27T12:32:02.150Z,1014.97
2018-12-27T12:33:02.202Z,1014.96
2018-12-27T12:34:02.107Z,1014.96
2018-12-27T12:35:02.131Z,1015.00
2018-12-27T12:36:02.100Z,1014.99
2018-12-27T12:37:02.071Z,1015.02
2018-12-27T12:38:02.078Z,1015.02
2018-12-27T12:39:02.076Z,1015.02
2018-12-27T12:40:02.089Z,1015.03
2018-12-27T12:41:02.022Z,1015.06
2018-12-27T12:42:02.041Z,1015.06
2018-12-27T12:43:01.996Z,1015.02
2018-12-27T12:44:02.022Z,1015.06
2018-12-27T12:45:02.012Z,1015.01
2018-12-27T12:46:02.030Z,1015.07
2018-12-27T12:47:01.962Z,1015.01
2018-12-27T12:48:01.983Z,1015.00
2018-12-27T12:49:01.972Z,1014.98
2018-12-27T12:50:01.925Z,1014.99
2018-12-27T12:51:01.901Z,1014.99
2018-12-27T12:52:01.930Z,1014.94
2018-12-27T12:53:01.915Z,1014.97
2018-12-27T12:54:01.870Z,1014.91
2018-12-27T12:55:01.863Z,1014.93
2018-12-27T12:56:01.887Z,1014.94
2018-12-27T12:57:01.851Z,1014.94
2018-12-27T12:58:01.856Z,1014.90
2018-12-27T12:59:01.845Z,1014.91
2018-12-27T13:00:01.862Z,1014.88
2018-12-27T13:01:01.784Z,1014.83
2018-12-27T13:02:01.804Z,1014.82
2018-12-27T13:03:01.800Z,1014.83
2018-12-27T13:04:01.791Z,1014.83
2018-12-27T13:05:01.772Z,1014.81
2018-12-27T13:06:01.754Z,1014.83
2018-12-27T13:07:01.709Z,1014.81
2018-12-27T13:08:01.765Z,1014.82
2018-12-27T13:09:10.599Z,1014.83
2018-12-27T13:10:55.668Z,1014.82
2018-12-27T13:11:55.400Z,1014.85
2018-12-27T13:12:55.313Z,1014.84
2018-12-27T13:13:55.452Z,1014.86
2018-12-27T13:14:55.342Z,1014.87
2018-12-27T13:15:55.212Z,1014.84
2018-12-27T13:16:55.243Z,1014.84
2018-12-27T13:17:55.227Z,1014.81
2018-12-27T13:18:55.200Z,1014.82
2018-12-27T13:19:55.201Z,1014.76
2018-12-27T13:20:55.180Z,1014.74
2018-12-27T13:21:55.166Z,1014.74
2018-12-27T13:22:55.170Z,1014.74
2018-12-27T13:23:55.166Z,1014.80
2018-12-27T13:24:55.158Z,1014.76
2018-12-27T13:25:55.129Z,1014.76
2018-12-27T13:26:55.142Z,1014.77
2018-12-27T13:27:55.129Z,1014.72
2018-12-27T13:28:55.084Z,1014.71
2018-12-27T13:29:55.059Z,1014.72
2018-12-27T13:30:55.068Z,1014.70
2018-12-27T13:31:55.018Z,1014.71
2018-12-27T13:32:55.051Z,1014.70
2018-12-27T13:33:55.028Z,1014.70
2018-12-27T13:34:55.003Z,1014.69
2018-12-27T13:35:55.002Z,1014.72
2018-12-27T13:36:54.958Z,1014.70
2018-12-27T13:37:54.964Z,1014.75
2018-12-27T13:38:54.924Z,1014.72
2018-12-27T13:39:54.975Z,1014.72
2018-12-27T13:40:54.975Z,1014.74
2018-12-27T13:41:54.972Z,1014.74
2018-12-27T13:42:54.925Z,1014.72
2018-12-27T13:43:54.921Z,1014.71
2018-12-27T13:44:55.000Z,1014.73
2018-12-27T13:45:54.899Z,1014.72
2018-12-27T13:46:54.867Z,1014.70
2018-12-27T13:47:54.890Z,1014.71
2018-12-27T13:48:54.819Z,1014.69
2018-12-27T13:49:54.804Z,1014.69
2018-12-27T13:50:54.837Z,1014.68
2018-12-27T13:51:54.773Z,1014.67
2018-12-27T13:52:54.818Z,1014.65
2018-12-27T13:53:54.798Z,1014.66
2018-12-27T13:54:54.767Z,1014.64
2018-12-27T13:55:54.718Z,1014.66
2018-12-27T13:56:54.796Z,1014.65
2018-12-27T13:57:54.731Z,1014.61
2018-12-27T13:58:54.699Z,1014.60
2018-12-27T13:59:54.668Z,1014.59
2018-12-27T14:00:54.665Z,1014.60
2018-12-27T14:01:54.671Z,1014.56
2018-12-27T14:02:54.663Z,1014.57
2018-12-27T14:03:54.641Z,1014.53
2018-12-27T14:04:54.638Z,1014.54
2018-12-27T14:05:54.629Z,1014.55
2018-12-27T14:06:54.602Z,1014.52
2018-12-27T14:07:54.638Z,1014.52
2018-12-27T14:08:54.617Z,1014.57
2018-12-27T14:09:54.560Z,1014.54
2018-12-27T14:10:54.542Z,1014.52
2018-12-27T14:11:54.611Z,1014.52
2018-12-27T14:13:03.448Z,1014.53
2018-12-27T14:15:00.247Z,1014.53
2018-12-27T14:16:00.414Z,1014.51
2018-12-27T14:17:09.138Z,1014.53
2018-12-27T14:19:04.601Z,1014.48
2018-12-27T14:20:04.423Z,1014.50
2018-12-27T14:21:14.084Z,1014.49
2018-12-27T14:22:58.933Z,1014.51
2018-12-27T14:23:59.085Z,1014.51
2018-12-27T14:24:59.120Z,1014.53
2018-12-27T14:25:58.812Z,1014.49
2018-12-27T14:26:58.781Z,1014.50
2018-12-27T14:27:58.840Z,1014.50
2018-12-27T14:28:58.760Z,1014.49
2018-12-27T14:29:58.740Z,1014.48
2018-12-27T14:30:58.781Z,1014.48
2018-12-27T14:31:58.770Z,1014.50
2018-12-27T14:32:58.760Z,1014.48
2018-12-27T14:33:58.692Z,1014.52
2018-12-27T14:34:58.701Z,1014.51
2018-12-27T14:35:58.765Z,1014.48
2018-12-27T14:36:58.747Z,1014.51
2018-12-27T14:37:58.706Z,1014.45
2018-12-27T14:38:58.664Z,1014.48
2018-12-27T14:39:58.613Z,1014.51
2018-12-27T14:40:58.667Z,1014.54
2018-12-27T14:41:58.615Z,1014.51
2018-12-27T14:42:58.586Z,1014.51
2018-12-27T14:43:58.571Z,1014.52
2018-12-27T14:44:58.557Z,1014.52
2018-12-27T14:45:58.548Z,1014.50
2018-12-27T14:46:58.541Z,1014.51
2018-12-27T14:47:58.520Z,1014.53
2018-12-27T14:48:58.506Z,1014.56
2018-12-27T14:49:58.502Z,1014.54
2018-12-27T14:50:58.491Z,1014.61
2018-12-27T14:51:58.497Z,1014.57
2018-12-27T14:52:58.492Z,1014.60
2018-12-27T14:53:58.483Z,1014.55
2018-12-27T14:54:58.466Z,1014.61
2018-12-27T14:55:58.478Z,1014.59
2018-12-27T14:56:59.140Z,1014.59
2018-12-27T14:57:58.419Z,1014.64
2018-12-27T14:58:58.409Z,1014.60
2018-12-27T15:00:07.484Z,1014.61
2018-12-27T15:02:03.246Z,1014.60
2018-12-27T15:03:03.256Z,1014.60
2018-12-27T15:04:02.879Z,1014.57
2018-12-27T15:05:03.624Z,1014.57
2018-12-27T15:06:12.721Z,1014.60
2018-12-27T15:08:07.635Z,1014.57
2018-12-27T15:09:07.354Z,1014.58
2018-12-27T15:10:07.287Z,1014.60
2018-12-27T15:11:07.497Z,1014.63
2018-12-27T15:12:07.212Z,1014.66
2018-12-27T15:13:07.189Z,1014.69
2018-12-27T15:14:07.197Z,1014.67
2018-12-27T15:15:07.151Z,1014.66
2018-12-27T15:16:07.179Z,1014.68
2018-12-27T15:17:07.125Z,1014.71
2018-12-27T15:18:07.103Z,1014.73
2018-12-27T15:19:07.100Z,1014.76
2018-12-27T15:20:07.089Z,1014.75
2018-12-27T15:21:07.132Z,1014.72
2018-12-27T15:22:07.072Z,1014.75
2018-12-27T15:23:07.077Z,1014.76
2018-12-27T15:24:07.068Z,1014.74
2018-12-27T15:25:07.053Z,1014.78
2018-12-27T15:26:07.021Z,1014.71
2018-12-27T15:27:07.039Z,1014.74
2018-12-27T15:28:06.998Z,1014.72
2018-12-27T15:29:07.022Z,1014.73
2018-12-27T15:30:06.971Z,1014.72
2018-12-27T15:31:06.976Z,1014.76
2018-12-27T15:32:07.012Z,1014.73
2018-12-27T15:33:07.115Z,1014.73
2018-12-27T15:34:06.990Z,1014.70
2018-12-27T15:35:06.947Z,1014.70
2018-12-27T15:36:06.961Z,1014.69
2018-12-27T15:37:06.999Z,1014.70
2018-12-27T15:38:06.909Z,1014.70
2018-12-27T15:39:07.148Z,1014.70
2018-12-27T15:40:06.907Z,1014.71
2018-12-27T15:41:07.010Z,1014.72
2018-12-27T15:42:06.894Z,1014.69